Time;durP1;ratioP1;P1;durP2;ratioP2;P2;SDS_P1;SDS_P2;PMS_P1;PMS_P2;Temp;Humidity;BMP_temperature;BMP_pressure;BME280_temperature;BME280_humidity;BME280_pressure;Samples;Min_cycle;Max_cycle;Signal;HPM_P1;HPM_P2
2022/05/16 00:00:46;;;;;;;7.47;4.25;;;13.40;93.80;;;;;;2097113;28;20112;-72
2022/05/16 00:01:46;;;;;;;6.97;4.43;;;13.30;94.00;;;;;;2096905;28;20020;-72
2022/05/16 00:02:47;;;;;;;6.13;3.97;;;13.30;94.10;;;;;;2096465;28;20028;-73
2022/05/16 00:03:47;;;;;;;7.13;4.30;;;13.30;94.30;;;;;;2096081;28;20017;-71
2022/05/16 00:04:50;;;;;;;5.78;4.00;;;13.30;94.50;;;;;;2096760;28;20032;-72
2022/05/16 00:05:51;;;;;;;6.65;4.20;;;13.30;94.70;;;;;;2096406;28;20398;-72
2022/05/16 00:06:52;;;;;;;5.65;3.70;;;13.30;94.90;;;;;;2096627;28;20040;-71
2022/05/16 00:07:53;;;;;;;6.95;4.00;;;13.30;95.10;;;;;;2096242;28;20052;-72
2022/05/16 00:08:55;;;;;;;5.65;4.00;;;13.30;95.20;;;;;;2096195;28;20103;-72
2022/05/16 00:09:55;;;;;;;7.05;3.88;;;13.30;95.40;;;;;;2096922;28;20131;-72
2022/05/16 00:10:56;;;;;;;7.03;4.25;;;13.30;95.50;;;;;;2097343;28;20039;-72
2022/05/16 00:11:57;;;;;;;5.85;4.20;;;13.30;95.70;;;;;;2097923;28;20021;-71
2022/05/16 00:12:59;;;;;;;6.15;4.03;;;13.30;95.80;;;;;;2097590;28;20040;-71
2022/05/16 00:14:00;;;;;;;7.28;3.92;;;13.30;96.00;;;;;;2097659;28;20466;-71
2022/05/16 00:15:02;;;;;;;7.85;4.32;;;13.30;96.20;;;;;;2097626;28;20025;-72
2022/05/16 00:16:03;;;;;;;6.72;4.07;;;13.20;96.40;;;;;;2097788;28;20048;-72
2022/05/16 00:17:04;;;;;;;5.90;4.10;;;13.20;96.60;;;;;;2097021;28;20028;-71
2022/05/16 00:18:05;;;;;;;7.28;3.95;;;13.20;96.80;;;;;;2096861;28;20683;-71
2022/05/16 00:19:06;;;;;;;6.22;4.00;;;13.20;97.10;;;;;;2097103;28;20021;-72
2022/05/16 00:20:09;;;;;;;7.28;4.10;;;13.30;97.30;;;;;;2097029;28;20021;-72
2022/05/16 00:21:10;;;;;;;5.32;4.22;;;13.30;97.50;;;;;;2088726;28;20032;-72
2022/05/16 00:22:11;;;;;;;6.68;4.22;;;13.30;97.80;;;;;;2088874;28;20434;-73
2022/05/16 00:23:12;;;;;;;5.57;4.07;;;13.30;97.90;;;;;;2097534;28;20024;-72
2022/05/16 00:24:12;;;;;;;5.57;4.20;;;13.30;98.10;;;;;;2097661;28;20529;-72
2022/05/16 00:25:18;;;;;;;5.90;4.13;;;13.30;98.30;;;;;;2097541;28;20029;-72
2022/05/16 00:26:18;;;;;;;6.70;4.15;;;13.30;98.50;;;;;;2097631;28;20433;-71
2022/05/16 00:27:19;;;;;;;5.30;3.90;;;13.30;98.70;;;;;;2097386;28;20032;-71
2022/05/16 00:28:20;;;;;;;7.03;4.05;;;13.30;98.90;;;;;;2097385;28;20070;-73
2022/05/16 00:29:21;;;;;;;5.45;4.00;;;13.30;99.10;;;;;;2096772;28;20123;-70
2022/05/16 00:30:21;;;;;;;6.75;4.00;;;13.20;99.20;;;;;;2096860;28;20036;-75
2022/05/16 00:31:22;;;;;;;5.82;4.30;;;13.30;99.50;;;;;;2097515;28;20444;-71
2022/05/16 00:32:23;;;;;;;8.35;4.32;;;13.30;99.60;;;;;;2097466;28;20532;-70
2022/05/16 00:33:23;;;;;;;5.55;3.90;;;13.30;99.90;;;;;;2096602;28;20025;-74
2022/05/16 00:34:24;;;;;;;5.70;4.00;;;13.30;99.90;;;;;;2097098;28;20028;-71
2022/05/16 00:35:25;;;;;;;6.50;4.00;;;13.30;99.90;;;;;;2097750;28;20526;-70
2022/05/16 00:36:25;;;;;;;5.90;4.18;;;13.20;99.90;;;;;;2097467;28;20036;-71
2022/05/16 00:37:26;;;;;;;6.65;4.57;;;13.30;99.90;;;;;;2097486;28;20025;-71
2022/05/16 00:38:27;;;;;;;9.80;4.47;;;13.20;99.90;;;;;;2097224;28;20033;-72
2022/05/16 00:39:27;;;;;;;13.35;4.53;;;13.20;99.90;;;;;;2097540;28;20032;-70
2022/05/16 00:40:28;;;;;;;10.65;4.60;;;13.20;99.90;;;;;;2097800;28;20028;-74
2022/05/16 00:41:28;;;;;;;8.50;4.28;;;13.10;99.90;;;;;;2097810;28;20086;-73
2022/05/16 00:42:29;;;;;;;7.57;4.10;;;13.10;99.80;;;;;;2096814;28;20036;-72
2022/05/16 00:43:45;;;;;;;6.88;4.00;;;13.10;99.90;;;;;;2096827;28;20068;-72
2022/05/16 00:44:46;;;;;;;6.35;4.18;;;13.10;99.90;;;;;;2096735;28;20035;-71
2022/05/16 00:45:47;;;;;;;6.22;4.45;;;13.00;99.80;;;;;;2096712;28;20032;-72
2022/05/16 00:46:48;;;;;;;10.73;5.72;;;13.00;99.80;;;;;;2097557;28;20049;-72
2022/05/16 00:47:49;;;;;;;11.25;6.82;;;13.00;99.70;;;;;;2096147;28;20059;-73
2022/05/16 00:48:50;;;;;;;13.13;7.00;;;13.00;99.70;;;;;;2096647;28;20061;-72
2022/05/16 00:49:53;;;;;;;14.20;7.55;;;12.90;99.90;;;;;;2096883;28;20158;-73
2022/05/16 00:50:53;;;;;;;13.18;7.82;;;12.90;99.90;;;;;;2096540;28;20518;-72
2022/05/16 00:52:00;;;;;;;12.60;7.70;;;12.90;99.90;;;;;;2097293;28;20036;-71
2022/05/16 00:53:00;;;;;;;15.27;8.70;;;12.90;99.90;;;;;;2097212;28;20020;-74
2022/05/16 00:54:16;;;;;;;17.20;9.32;;;12.80;99.90;;;;;;2097354;28;20043;-72
2022/05/16 00:55:24;;;;;;;15.05;9.00;;;12.80;99.90;;;;;;2096673;28;20039;-71
2022/05/16 00:56:27;;;;;;;15.65;9.05;;;12.80;99.90;;;;;;2089205;28;20024;-71
2022/05/16 00:57:34;;;;;;;16.77;8.98;;;12.70;99.90;;;;;;2096622;28;20162;-73
2022/05/16 00:58:38;;;;;;;13.57;9.38;;;12.70;99.90;;;;;;2096782;28;20024;-74
2022/05/16 00:59:51;;;;;;;17.67;8.43;;;12.70;99.90;;;;;;2097086;28;20036;-71
2022/05/16 01:00:53;;;;;;;14.77;8.65;;;12.70;99.90;;;;;;2097071;28;20410;-72
2022/05/16 01:04:49;;;;;;;14.27;7.28;;;12.70;99.90;;;;;;2087535;28;20037;-74
2022/05/16 01:05:51;;;;;;;11.77;7.05;;;12.70;99.90;;;;;;2096613;28;20043;-72
2022/05/16 01:06:54;;;;;;;12.82;7.05;;;12.70;99.90;;;;;;2097049;28;20043;-70
2022/05/16 01:08:04;;;;;;;11.23;6.97;;;12.70;99.90;;;;;;2095930;28;20390;-73
2022/05/16 01:09:05;;;;;;;10.70;6.20;;;12.60;99.90;;;;;;2088069;28;20032;-70
2022/05/16 01:10:08;;;;;;;10.00;6.25;;;12.60;99.90;;;;;;2088042;28;20118;-72
2022/05/16 01:11:12;;;;;;;8.77;5.90;;;12.60;99.90;;;;;;2097031;28;20050;-73
2022/05/16 01:12:13;;;;;;;9.10;5.60;;;12.60;99.90;;;;;;2096483;28;20099;-72
2022/05/16 01:13:14;;;;;;;8.02;5.45;;;12.60;99.90;;;;;;2096427;28;20055;-72
2022/05/16 01:14:37;;;;;;;9.05;5.40;;;12.50;99.90;;;;;;2097056;28;20604;-72
2022/05/16 01:15:46;;;;;;;8.00;5.25;;;12.50;99.90;;;;;;2096164;28;20110;-72
2022/05/16 01:16:47;;;;;;;7.78;4.82;;;12.50;99.90;;;;;;2096325;28;20033;-73
2022/05/16 01:17:48;;;;;;;7.43;4.82;;;12.50;99.90;;;;;;2096124;28;20414;-73
2022/05/16 01:18:48;;;;;;;7.13;4.80;;;12.50;99.90;;;;;;2096901;28;20581;-71
2022/05/16 01:19:50;;;;;;;7.03;4.50;;;12.50;99.90;;;;;;2096872;28;20696;-72
2022/05/16 01:21:02;;;;;;;6.38;4.38;;;12.50;99.90;;;;;;2096215;28;20055;-71
2022/05/16 01:22:40;;;;;;;7.50;4.78;;;12.40;99.90;;;;;;2096344;28;20517;-72
2022/05/16 01:23:43;;;;;;;6.85;4.50;;;12.40;99.90;;;;;;2096685;28;20024;-72
2022/05/16 01:24:44;;;;;;;7.82;4.43;;;12.30;99.90;;;;;;2096387;28;20032;-71
2022/05/16 01:25:45;;;;;;;8.20;4.50;;;12.30;99.90;;;;;;2096332;28;20095;-74
2022/05/16 01:26:45;;;;;;;5.45;4.25;;;12.30;99.90;;;;;;2097061;28;20082;-72
2022/05/16 01:27:58;;;;;;;7.72;4.50;;;12.20;99.90;;;;;;2096706;28;20504;-73
2022/05/16 01:28:59;;;;;;;6.63;4.57;;;12.20;99.90;;;;;;2096942;28;20028;-72
2022/05/16 01:30:00;;;;;;;6.25;4.30;;;12.20;99.90;;;;;;2096882;28;20108;-71
2022/05/16 01:31:01;;;;;;;7.30;4.63;;;12.20;99.90;;;;;;2096158;28;20063;-73
2022/05/16 01:32:02;;;;;;;6.70;4.30;;;12.20;99.90;;;;;;2087742;28;20029;-72
2022/05/16 01:33:03;;;;;;;6.45;4.50;;;12.20;99.90;;;;;;2096388;28;20491;-72
2022/05/16 01:34:04;;;;;;;6.95;4.53;;;12.10;99.90;;;;;;2096162;28;20021;-73
2022/05/16 01:35:05;;;;;;;6.40;4.63;;;12.10;99.90;;;;;;2096357;28;20028;-72
2022/05/16 01:36:06;;;;;;;6.22;4.30;;;12.10;99.90;;;;;;2096250;28;20028;-72
2022/05/16 01:37:08;;;;;;;6.97;4.53;;;12.10;99.90;;;;;;2096758;28;20541;-71
2022/05/16 01:38:18;;;;;;;8.68;4.65;;;12.10;99.90;;;;;;2087696;28;20032;-70
2022/05/16 01:39:19;;;;;;;8.35;4.60;;;12.10;99.90;;;;;;2089370;28;20029;-71
2022/05/16 01:40:20;;;;;;;6.82;4.50;;;12.10;99.90;;;;;;2096805;28;20100;-72
2022/05/16 01:41:23;;;;;;;7.25;4.32;;;12.00;99.90;;;;;;2096174;28;20040;-72
2022/05/16 01:42:24;;;;;;;5.93;4.40;;;12.10;99.90;;;;;;2096205;28;20042;-71
2022/05/16 01:43:29;;;;;;;7.47;4.40;;;12.00;99.90;;;;;;2096936;28;20090;-73
2022/05/16 01:44:30;;;;;;;8.95;4.80;;;12.00;99.90;;;;;;2097155;28;20040;-72
2022/05/16 01:45:30;;;;;;;6.25;4.40;;;12.00;99.90;;;;;;2097114;28;20064;-74
2022/05/16 01:46:37;;;;;;;7.82;4.55;;;12.00;99.90;;;;;;2097003;28;20205;-73
2022/05/16 01:47:38;;;;;;;5.68;4.00;;;12.00;99.90;;;;;;2096995;28;20043;-74
2022/05/16 01:48:39;;;;;;;7.68;4.60;;;12.00;99.90;;;;;;2096535;28;20029;-72
2022/05/16 01:49:39;;;;;;;7.88;5.07;;;12.00;99.90;;;;;;2096875;28;20639;-73
2022/05/16 01:50:41;;;;;;;7.93;4.78;;;12.00;99.90;;;;;;2095927;28;20045;-71
2022/05/16 01:51:42;;;;;;;6.05;4.40;;;12.00;99.90;;;;;;2096207;28;20066;-72
2022/05/16 01:52:42;;;;;;;10.48;5.05;;;12.00;99.90;;;;;;2095990;28;20122;-71
2022/05/16 01:53:43;;;;;;;7.35;4.55;;;12.00;99.90;;;;;;2096028;28;20078;-71
2022/05/16 01:54:44;;;;;;;5.90;4.50;;;12.00;99.90;;;;;;2096141;28;20099;-73
2022/05/16 01:55:45;;;;;;;5.65;4.25;;;12.10;99.90;;;;;;2087848;28;20025;-71
2022/05/16 01:56:46;;;;;;;6.22;4.10;;;12.10;99.90;;;;;;2096046;28;20025;-72
2022/05/16 01:57:47;;;;;;;6.13;4.57;;;12.10;99.90;;;;;;2096392;28;20025;-71
2022/05/16 01:58:48;;;;;;;6.60;4.60;;;12.10;99.90;;;;;;2096661;28;20028;-73
2022/05/16 01:59:48;;;;;;;7.68;4.80;;;12.10;99.90;;;;;;2096749;28;20033;-73
2022/05/16 02:00:50;;;;;;;6.47;4.50;;;12.10;99.90;;;;;;2096854;28;20028;-72
2022/05/16 02:01:50;;;;;;;6.70;4.50;;;12.10;99.90;;;;;;2096696;28;20115;-73
2022/05/16 02:02:51;;;;;;;6.38;4.80;;;12.10;99.90;;;;;;2096112;28;20025;-73
2022/05/16 02:03:52;;;;;;;6.38;4.72;;;12.10;99.90;;;;;;2087650;28;20115;-72
2022/05/16 02:04:52;;;;;;;8.60;4.80;;;12.10;99.90;;;;;;2096234;28;20479;-70
2022/05/16 02:05:53;;;;;;;7.53;4.95;;;12.10;99.90;;;;;;2096884;28;20495;-72
2022/05/16 02:06:54;;;;;;;5.30;4.47;;;12.10;99.90;;;;;;2096745;28;20036;-71
2022/05/16 02:07:55;;;;;;;8.07;4.78;;;12.00;99.90;;;;;;2096508;28;20025;-71
2022/05/16 02:08:55;;;;;;;8.40;4.93;;;12.00;99.90;;;;;;2096228;28;20111;-73
2022/05/16 02:09:56;;;;;;;7.68;4.90;;;12.00;99.90;;;;;;2095962;28;20641;-72
2022/05/16 02:10:57;;;;;;;8.43;4.80;;;12.00;99.90;;;;;;2096750;28;20098;-72
2022/05/16 02:11:57;;;;;;;8.18;4.80;;;12.00;99.90;;;;;;2096168;28;20025;-72
2022/05/16 02:12:59;;;;;;;6.63;4.75;;;11.90;99.90;;;;;;2087723;28;20486;-73
2022/05/16 02:13:59;;;;;;;7.18;4.80;;;11.90;99.90;;;;;;2096059;28;20074;-73
2022/05/16 02:15:02;;;;;;;8.18;4.55;;;11.90;99.90;;;;;;2096976;28;20028;-71
2022/05/16 02:16:03;;;;;;;8.27;4.65;;;11.90;99.90;;;;;;2096754;28;20483;-72
2022/05/16 02:17:03;;;;;;;8.52;4.78;;;11.90;99.90;;;;;;2096042;28;20028;-72
2022/05/16 02:18:05;;;;;;;6.28;4.75;;;11.80;99.90;;;;;;2095929;28;20106;-72
2022/05/16 02:19:05;;;;;;;7.50;4.90;;;11.80;99.90;;;;;;2096625;28;20104;-72
2022/05/16 02:20:07;;;;;;;7.35;4.85;;;11.80;99.90;;;;;;2095902;28;20020;-72
2022/05/16 02:25:06;;;;;;;6.75;4.50;;;11.70;99.90;;;;;;2096508;28;20036;-72
2022/05/16 02:26:07;;;;;;;6.85;4.93;;;11.70;99.90;;;;;;2096473;28;20043;-72
2022/05/16 02:27:15;;;;;;;6.78;4.80;;;11.70;99.90;;;;;;2096573;28;20067;-73
2022/05/16 02:28:18;;;;;;;7.55;4.65;;;11.70;99.90;;;;;;2095590;28;20076;-72
2022/05/16 02:29:19;;;;;;;7.38;4.65;;;11.70;99.90;;;;;;2087386;28;20412;-73
2022/05/16 02:30:21;;;;;;;7.00;4.53;;;11.70;99.90;;;;;;2087532;28;20120;-72
2022/05/16 02:31:21;;;;;;;5.93;4.63;;;11.70;99.90;;;;;;2095843;28;20040;-72
2022/05/16 02:32:22;;;;;;;8.95;4.65;;;11.70;99.90;;;;;;2095210;28;20021;-72
2022/05/16 02:33:23;;;;;;;8.30;5.00;;;11.70;99.90;;;;;;2095235;28;20039;-72
2022/05/16 02:34:24;;;;;;;6.47;4.90;;;11.60;99.90;;;;;;2095512;28;20039;-73
2022/05/16 02:35:24;;;;;;;8.95;4.60;;;11.60;99.90;;;;;;2095838;28;20036;-73
2022/05/16 02:36:25;;;;;;;6.03;4.60;;;11.60;99.90;;;;;;2096343;28;20082;-72
2022/05/16 02:37:25;;;;;;;7.55;4.82;;;11.60;99.90;;;;;;2096432;28;20031;-72
2022/05/16 02:38:26;;;;;;;7.53;4.95;;;11.50;99.90;;;;;;2095586;28;20020;-72
2022/05/16 02:39:27;;;;;;;10.23;5.13;;;11.60;99.90;;;;;;2087313;28;20392;-72
2022/05/16 02:40:30;;;;;;;7.95;4.93;;;11.50;99.90;;;;;;2095727;28;20507;-72
2022/05/16 02:41:31;;;;;;;8.48;4.90;;;11.50;99.90;;;;;;2096362;28;20040;-73
2022/05/16 02:42:32;;;;;;;6.55;4.57;;;11.50;99.90;;;;;;2096567;28;20058;-73
2022/05/16 02:43:32;;;;;;;6.82;4.57;;;11.50;99.90;;;;;;2097166;28;20033;-73
2022/05/16 02:44:33;;;;;;;7.65;4.97;;;11.50;99.90;;;;;;2097583;28;20024;-72
2022/05/16 02:45:34;;;;;;;8.05;4.68;;;11.50;99.90;;;;;;2097816;28;20557;-72
2022/05/16 02:46:35;;;;;;;6.88;4.78;;;11.50;99.90;;;;;;2097585;28;20028;-71
2022/05/16 02:47:36;;;;;;;6.10;4.80;;;11.50;99.90;;;;;;2097055;28;20037;-72
2022/05/16 02:48:36;;;;;;;8.70;4.97;;;11.50;99.90;;;;;;2096378;28;20039;-74
2022/05/16 02:49:37;;;;;;;8.18;4.90;;;11.50;99.90;;;;;;2096795;28;20486;-71
2022/05/16 02:50:38;;;;;;;6.93;4.80;;;11.50;99.90;;;;;;2096036;28;20502;-72
2022/05/16 02:51:38;;;;;;;5.93;4.63;;;11.50;99.90;;;;;;2096444;28;20569;-72
2022/05/16 02:52:39;;;;;;;6.50;4.80;;;11.50;99.90;;;;;;2097048;28;20028;-74
2022/05/16 02:53:40;;;;;;;6.88;4.65;;;11.50;99.90;;;;;;2097271;28;20099;-71
2022/05/16 02:54:40;;;;;;;6.75;4.78;;;11.40;99.90;;;;;;2097328;28;20123;-72
2022/05/16 02:55:41;;;;;;;6.95;4.93;;;11.40;99.90;;;;;;2097392;28;20028;-73
2022/05/16 02:56:41;;;;;;;6.43;4.50;;;11.40;99.90;;;;;;2097036;28;20028;-72
2022/05/16 02:57:42;;;;;;;7.30;4.60;;;11.40;99.90;;;;;;2096352;28;20033;-73
2022/05/16 02:58:43;;;;;;;7.43;4.43;;;11.40;99.90;;;;;;2088314;28;20108;-73
2022/05/16 02:59:44;;;;;;;7.20;4.75;;;11.40;99.90;;;;;;2088759;28;20033;-73
2022/05/16 03:00:44;;;;;;;6.72;4.55;;;11.40;99.90;;;;;;2096705;28;20442;-71
2022/05/16 03:01:45;;;;;;;6.63;4.82;;;11.30;99.90;;;;;;2088349;28;20025;-72
2022/05/16 03:02:46;;;;;;;6.95;4.90;;;11.30;99.90;;;;;;2088550;28;20033;-72
2022/05/16 03:03:48;;;;;;;9.15;4.88;;;11.30;99.90;;;;;;2097044;28;20052;-72
2022/05/16 03:04:48;;;;;;;7.43;5.05;;;11.30;99.90;;;;;;2096161;28;20102;-73
2022/05/16 03:05:49;;;;;;;7.25;5.00;;;11.30;99.90;;;;;;2096980;28;20040;-73
2022/05/16 03:06:50;;;;;;;6.43;4.78;;;11.30;99.90;;;;;;2097893;28;20517;-72
2022/05/16 03:07:51;;;;;;;7.65;4.70;;;11.30;99.90;;;;;;2098427;28;20032;-71
2022/05/16 03:08:52;;;;;;;8.68;5.28;;;11.30;99.90;;;;;;2098407;28;20068;-72
2022/05/16 03:09:52;;;;;;;8.68;4.80;;;11.30;99.90;;;;;;2098562;28;20027;-71
2022/05/16 03:10:53;;;;;;;11.05;5.13;;;11.30;99.90;;;;;;2097200;28;20059;-72
2022/05/16 03:11:54;;;;;;;9.63;5.18;;;11.30;99.90;;;;;;2098110;28;20670;-72
2022/05/16 03:12:55;;;;;;;7.93;5.18;;;11.30;99.90;;;;;;2098730;28;20017;-71
2022/05/16 03:13:56;;;;;;;10.50;5.78;;;11.30;99.90;;;;;;2098140;28;20017;-73
2022/05/16 03:14:57;;;;;;;9.07;5.55;;;11.30;99.90;;;;;;2089748;28;20029;-71
2022/05/16 03:15:59;;;;;;;8.77;5.07;;;11.30;99.90;;;;;;2089691;28;20546;-70
2022/05/16 03:16:59;;;;;;;6.85;5.18;;;11.30;99.90;;;;;;2097741;28;20024;-72
2022/05/16 03:18:00;;;;;;;6.68;5.00;;;11.30;99.90;;;;;;2097580;28;20023;-73
2022/05/16 03:19:01;;;;;;;8.32;5.40;;;11.30;99.90;;;;;;2097805;28;20028;-72
2022/05/16 03:20:02;;;;;;;7.25;5.10;;;11.30;99.90;;;;;;2098450;28;20025;-72
2022/05/16 03:21:03;;;;;;;7.65;5.20;;;11.30;99.90;;;;;;2097760;28;20036;-72
2022/05/16 03:22:05;;;;;;;9.13;5.35;;;11.30;99.90;;;;;;2097014;28;20035;-72
2022/05/16 03:23:05;;;;;;;6.05;4.75;;;11.30;99.90;;;;;;2097830;28;20025;-73
2022/05/16 03:24:10;;;;;;;6.25;5.07;;;11.40;99.90;;;;;;2095790;28;20058;-70
2022/05/16 03:25:11;;;;;;;7.30;4.90;;;11.40;99.90;;;;;;2088756;28;20258;-71
2022/05/16 03:26:13;;;;;;;7.28;5.15;;;11.40;99.90;;;;;;2086749;28;20079;-68
2022/05/16 03:27:13;;;;;;;6.88;5.05;;;11.30;99.90;;;;;;2086920;28;20169;-69
2022/05/16 03:28:14;;;;;;;8.02;5.53;;;11.30;99.90;;;;;;2086640;28;20082;-69
2022/05/16 03:29:16;;;;;;;8.20;5.55;;;11.30;99.90;;;;;;2078579;28;20033;-69
2022/05/16 03:30:17;;;;;;;6.45;5.03;;;11.40;99.90;;;;;;2086805;28;20032;-68
2022/05/16 03:31:18;;;;;;;8.25;5.13;;;11.30;99.90;;;;;;2087528;28;20036;-70
2022/05/16 03:32:18;;;;;;;8.65;5.63;;;11.30;99.90;;;;;;2086946;28;20036;-70
2022/05/16 03:33:20;;;;;;;9.15;5.40;;;11.30;99.90;;;;;;2078591;28;20033;-69
2022/05/16 03:34:20;;;;;;;7.90;5.47;;;11.30;99.90;;;;;;2078482;28;20523;-69
2022/05/16 03:35:21;;;;;;;8.45;5.30;;;11.40;99.90;;;;;;2086848;28;20043;-69
2022/05/16 03:36:21;;;;;;;8.43;5.45;;;11.40;99.90;;;;;;2086957;28;20021;-70
2022/05/16 03:37:22;;;;;;;8.30;5.50;;;11.40;99.90;;;;;;2086804;28;20056;-70
2022/05/16 03:41:07;;;;;;;9.80;5.23;;;11.40;99.90;;;;;;2086870;28;20068;-69
2022/05/16 03:42:08;;;;;;;9.02;5.43;;;11.40;99.90;;;;;;2087093;28;20279;-68
2022/05/16 03:43:10;;;;;;;8.55;5.70;;;11.40;99.90;;;;;;2087851;28;20044;-68
2022/05/16 03:44:10;;;;;;;9.38;5.55;;;11.40;99.90;;;;;;2087153;28;20033;-66
2022/05/16 03:45:12;;;;;;;7.60;5.18;;;11.40;99.90;;;;;;2086894;28;20029;-67
2022/05/16 03:46:13;;;;;;;9.43;5.18;;;11.40;99.90;;;;;;2087125;28;20096;-68
2022/05/16 03:47:14;;;;;;;6.97;5.18;;;11.40;99.90;;;;;;2087513;28;20037;-68
2022/05/16 03:48:15;;;;;;;8.43;5.32;;;11.40;99.90;;;;;;2087517;28;20029;-68
2022/05/16 03:49:16;;;;;;;7.93;5.32;;;11.40;99.90;;;;;;2087782;28;20393;-70
2022/05/16 03:50:16;;;;;;;8.10;5.30;;;11.40;99.90;;;;;;2086886;28;20060;-67
2022/05/16 03:51:17;;;;;;;9.85;5.55;;;11.40;99.90;;;;;;2087118;28;20040;-67
2022/05/16 03:52:18;;;;;;;7.07;4.90;;;11.40;99.90;;;;;;2087377;28;20548;-68
2022/05/16 03:53:18;;;;;;;6.40;4.78;;;11.40;99.90;;;;;;2079037;28;20618;-67
2022/05/16 03:54:19;;;;;;;8.68;5.38;;;11.50;99.90;;;;;;2087327;28;20045;-66
2022/05/16 03:55:20;;;;;;;8.93;5.57;;;11.50;99.90;;;;;;2088165;28;20388;-66
2022/05/16 03:56:26;;;;;;;7.93;5.07;;;11.50;99.90;;;;;;2078736;28;20025;-66
2022/05/16 03:57:27;;;;;;;7.95;5.40;;;11.60;99.90;;;;;;2079867;28;20056;-64
2022/05/16 03:58:27;;;;;;;9.88;5.45;;;11.60;99.90;;;;;;2086626;28;20052;-67
2022/05/16 03:59:28;;;;;;;7.18;5.20;;;11.70;99.90;;;;;;2087044;28;20056;-67
2022/05/16 04:00:28;;;;;;;8.15;5.10;;;11.70;99.90;;;;;;2086626;28;20091;-68
2022/05/16 04:01:29;;;;;;;8.68;5.22;;;11.70;99.90;;;;;;2086917;28;20112;-68
2022/05/16 04:02:30;;;;;;;12.93;5.93;;;11.70;99.90;;;;;;2078753;28;20049;-68
2022/05/16 04:03:30;;;;;;;8.98;5.55;;;11.80;99.90;;;;;;2086978;28;20923;-68
2022/05/16 04:04:32;;;;;;;11.38;5.40;;;11.80;99.90;;;;;;2087602;28;20037;-69
2022/05/16 04:05:32;;;;;;;10.00;6.00;;;11.80;99.90;;;;;;2087302;28;20067;-69
2022/05/16 04:06:34;;;;;;;9.00;5.93;;;11.90;99.90;;;;;;2078865;28;20079;-69
2022/05/16 04:07:36;;;;;;;7.28;5.32;;;11.90;99.90;;;;;;2078778;28;20044;-69
2022/05/16 04:08:36;;;;;;;9.38;5.78;;;11.90;99.90;;;;;;2086918;28;20021;-69
2022/05/16 04:09:37;;;;;;;9.52;5.45;;;12.00;99.90;;;;;;2087354;28;20134;-69
2022/05/16 04:10:37;;;;;;;10.98;5.93;;;12.10;99.90;;;;;;2087178;28;20127;-69
2022/05/16 04:11:38;;;;;;;9.88;5.90;;;12.30;99.90;;;;;;2086702;28;20440;-69
2022/05/16 04:12:39;;;;;;;10.38;5.38;;;12.60;99.90;;;;;;2086876;28;20028;-69
2022/05/16 04:13:40;;;;;;;7.97;5.30;;;12.90;99.90;;;;;;2087341;28;20059;-69
2022/05/16 04:14:40;;;;;;;12.13;5.35;;;13.30;99.90;;;;;;2086629;28;20083;-69
2022/05/16 04:15:41;;;;;;;7.85;4.97;;;13.60;99.90;;;;;;2086847;28;20040;-68
2022/05/16 04:16:41;;;;;;;8.90;5.07;;;13.90;99.90;;;;;;2086761;28;20040;-68
2022/05/16 04:17:43;;;;;;;8.63;5.40;;;14.30;99.90;;;;;;2078624;28;20060;-68
2022/05/16 04:18:44;;;;;;;8.93;5.57;;;14.60;99.90;;;;;;2086737;28;20025;-68
2022/05/16 04:19:45;;;;;;;9.15;5.00;;;14.90;99.90;;;;;;2087463;28;20026;-68
2022/05/16 04:20:47;;;;;;;7.00;4.68;;;15.10;99.20;;;;;;2086555;28;20056;-68
2022/05/16 04:21:47;;;;;;;8.68;4.85;;;15.40;98.00;;;;;;2086729;28;20029;-68
2022/05/16 04:22:48;;;;;;;6.97;4.90;;;15.60;96.70;;;;;;2087301;28;20025;-67
2022/05/16 04:23:48;;;;;;;5.55;4.15;;;15.80;95.70;;;;;;2087438;28;20427;-67
2022/05/16 04:24:49;;;;;;;8.27;4.65;;;16.00;94.70;;;;;;2087415;28;20037;-68
2022/05/16 04:25:50;;;;;;;11.68;4.90;;;16.20;93.40;;;;;;2087324;28;20025;-68
2022/05/16 04:26:51;;;;;;;8.10;5.13;;;16.30;92.50;;;;;;2087458;28;20443;-68
2022/05/16 04:27:51;;;;;;;11.38;5.35;;;16.40;91.60;;;;;;2087091;28;20108;-70
2022/05/16 04:28:52;;;;;;;9.25;5.00;;;16.40;91.10;;;;;;2087710;28;20065;-71
2022/05/16 04:29:52;;;;;;;15.27;5.97;;;16.60;91.00;;;;;;2087615;28;20044;-71
2022/05/16 04:30:53;;;;;;;9.25;4.85;;;16.70;90.10;;;;;;2086531;28;20068;-71
2022/05/16 04:31:54;;;;;;;8.90;4.75;;;16.90;89.70;;;;;;2086866;28;20518;-71
2022/05/16 04:32:54;;;;;;;11.23;6.65;;;17.00;88.50;;;;;;2087474;28;20044;-71
2022/05/16 04:33:55;;;;;;;9.95;5.30;;;17.10;87.10;;;;;;2087366;28;20029;-71
2022/05/16 04:34:55;;;;;;;7.28;4.72;;;17.20;85.90;;;;;;2087193;28;20119;-71
2022/05/16 04:35:56;;;;;;;9.10;5.13;;;17.40;84.20;;;;;;2087388;28;20017;-71
2022/05/16 04:36:57;;;;;;;8.60;4.72;;;17.40;83.60;;;;;;2087978;28;20441;-70
2022/05/16 04:37:57;;;;;;;6.85;4.45;;;17.50;83.00;;;;;;2086363;28;20028;-71
2022/05/16 04:38:58;;;;;;;10.07;4.70;;;17.70;82.30;;;;;;2079346;28;20464;-74
2022/05/16 04:40:00;;;;;;;8.48;4.72;;;17.80;81.50;;;;;;2086971;28;20538;-72
2022/05/16 04:43:39;;;;;;;7.68;4.78;;;18.00;79.30;;;;;;2087670;28;20036;-70
2022/05/16 04:44:40;;;;;;;7.80;5.30;;;18.10;78.60;;;;;;2087800;28;20029;-70
2022/05/16 04:45:40;;;;;;;14.63;5.22;;;18.10;77.50;;;;;;2087565;28;20047;-70
2022/05/16 04:46:41;;;;;;;11.48;4.78;;;18.10;77.40;;;;;;2087426;28;20502;-70
2022/05/16 04:47:44;;;;;;;16.83;5.32;;;18.20;76.70;;;;;;2087352;28;20570;-71
2022/05/16 04:48:45;;;;;;;17.55;5.13;;;18.20;76.40;;;;;;2087296;28;20040;-71
2022/05/16 04:49:45;;;;;;;16.25;5.20;;;18.20;76.40;;;;;;2087528;28;20060;-70
2022/05/16 04:50:46;;;;;;;83.50;8.90;;;18.20;76.00;;;;;;2087280;28;20033;-72
2022/05/16 04:51:47;;;;;;;136.18;10.73;;;18.40;75.40;;;;;;2086926;28;20255;-71
2022/05/16 04:52:48;;;;;;;38.78;6.93;;;18.50;74.80;;;;;;2086851;28;20538;-71
2022/05/16 04:53:48;;;;;;;27.58;5.53;;;18.60;73.90;;;;;;2087333;28;20543;-71
2022/05/16 04:54:49;;;;;;;72.63;8.65;;;18.60;73.20;;;;;;2087388;28;20021;-72
2022/05/16 04:55:50;;;;;;;22.48;5.28;;;18.70;73.10;;;;;;2086628;28;20184;-71
2022/05/16 04:56:51;;;;;;;9.82;4.63;;;18.60;72.80;;;;;;2079983;28;20510;-69
2022/05/16 04:57:52;;;;;;;41.25;6.10;;;18.60;72.70;;;;;;2087985;28;20029;-70
2022/05/16 04:58:52;;;;;;;12.93;5.05;;;18.60;72.60;;;;;;2080184;28;20108;-70
2022/05/16 04:59:53;;;;;;;10.43;5.20;;;18.60;72.20;;;;;;2079994;28;20566;-72
2022/05/16 05:00:53;;;;;;;10.27;5.05;;;18.60;72.40;;;;;;2088435;28;20082;-74
2022/05/16 05:01:54;;;;;;;11.60;5.43;;;18.60;72.40;;;;;;2088441;28;20064;-72
2022/05/16 05:02:56;;;;;;;12.40;4.93;;;18.50;72.30;;;;;;2088863;28;20036;-71
2022/05/16 05:03:57;;;;;;;13.93;5.00;;;18.60;72.00;;;;;;2088955;28;20017;-72
2022/05/16 05:04:59;;;;;;;10.15;5.30;;;18.70;72.20;;;;;;2088968;28;20107;-69
2022/05/16 05:05:59;;;;;;;12.40;4.80;;;18.70;71.40;;;;;;2089034;28;20029;-68
2022/05/16 05:07:00;;;;;;;10.73;5.30;;;18.70;71.70;;;;;;2088506;28;20098;-70
2022/05/16 05:08:01;;;;;;;11.27;4.68;;;18.70;71.40;;;;;;2087777;28;20028;-71
2022/05/16 05:09:01;;;;;;;8.98;4.80;;;18.70;71.40;;;;;;2088891;28;20025;-68
2022/05/16 05:15:21;;;;;;;8.43;4.82;;;19.30;68.80;;;;;;2089107;28;20124;-73
2022/05/16 05:16:24;;;;;;;10.68;4.90;;;19.50;68.00;;;;;;2089383;28;20028;-73
2022/05/16 05:17:24;;;;;;;6.55;4.45;;;19.60;67.80;;;;;;2088455;28;20025;-72
2022/05/16 05:18:25;;;;;;;12.23;5.22;;;19.70;67.50;;;;;;2080110;28;20515;-71
2022/05/16 05:19:26;;;;;;;7.45;4.45;;;19.80;66.90;;;;;;2088533;28;20041;-71
2022/05/16 05:20:26;;;;;;;6.45;4.40;;;19.90;66.60;;;;;;2088287;28;20058;-72
2022/05/16 05:21:27;;;;;;;8.15;4.35;;;20.10;66.10;;;;;;2089581;28;20032;-72
2022/05/16 05:22:28;;;;;;;6.47;4.28;;;20.20;65.70;;;;;;2091092;28;20495;-72
2022/05/16 05:23:29;;;;;;;9.57;3.97;;;20.30;65.40;;;;;;2091412;28;20433;-73
2022/05/16 05:24:30;;;;;;;8.00;4.10;;;20.50;64.80;;;;;;2091594;28;20033;-73
2022/05/16 05:25:31;;;;;;;7.55;4.72;;;20.60;64.20;;;;;;2093752;28;20044;-71
2022/05/16 05:26:31;;;;;;;7.78;4.38;;;20.50;64.30;;;;;;2090136;28;20530;-72
2022/05/16 05:27:32;;;;;;;7.75;4.95;;;20.50;63.50;;;;;;2089199;28;20229;-75
2022/05/16 05:28:33;;;;;;;7.57;4.50;;;20.50;63.60;;;;;;2088932;28;20032;-74
2022/05/16 05:29:33;;;;;;;7.53;4.03;;;20.50;63.40;;;;;;2088464;28;20028;-73
2022/05/16 05:30:34;;;;;;;6.75;4.22;;;20.70;63.10;;;;;;2088369;28;20060;-68
2022/05/16 05:31:35;;;;;;;7.63;4.43;;;20.70;62.80;;;;;;2079479;28;20025;-69
2022/05/16 05:32:36;;;;;;;9.00;4.80;;;20.90;62.40;;;;;;2079720;28;20032;-73
2022/05/16 05:33:37;;;;;;;7.90;4.43;;;20.80;62.10;;;;;;2088277;28;20435;-73
2022/05/16 05:34:39;;;;;;;8.68;4.95;;;20.80;62.10;;;;;;2087983;28;20065;-72
2022/05/16 05:35:40;;;;;;;10.07;4.60;;;20.90;61.70;;;;;;2087902;28;20048;-72
2022/05/16 05:36:42;;;;;;;9.23;4.68;;;20.90;61.20;;;;;;2088193;28;20036;-71
2022/05/16 05:37:43;;;;;;;9.55;4.78;;;20.80;61.10;;;;;;2088087;28;20148;-70